sensor_id;sensor_type;location;lat;lon;timestamp;P1;durP1;ratioP1;P2;durP2;ratioP2
11173;SDS011;5643;50.856;12.088;2023-02-13T00:00:18;6.57;;;5.83;;
11173;SDS011;5643;50.856;12.088;2023-02-13T00:02:46;5.90;;;5.40;;
11173;SDS011;5643;50.856;12.088;2023-02-13T00:05:13;5.70;;;5.20;;
11173;SDS011;5643;50.856;12.088;2023-02-13T00:07:41;4.80;;;4.40;;
11173;SDS011;5643;50.856;12.088;2023-02-13T00:10:08;5.93;;;5.30;;
11173;SDS011;5643;50.856;12.088;2023-02-13T00:12:36;5.73;;;5.23;;
11173;SDS011;5643;50.856;12.088;2023-02-13T00:15:04;4.93;;;4.53;;
11173;SDS011;5643;50.856;12.088;2023-02-13T00:17:32;4.93;;;4.47;;
11173;SDS011;5643;50.856;12.088;2023-02-13T00:20:00;4.77;;;4.37;;
11173;SDS011;5643;50.856;12.088;2023-02-13T00:22:28;5.23;;;4.70;;
11173;SDS011;5643;50.856;12.088;2023-02-13T00:24:55;5.67;;;5.17;;
11173;SDS011;5643;50.856;12.088;2023-02-13T00:27:22;5.37;;;4.87;;
11173;SDS011;5643;50.856;12.088;2023-02-13T00:29:49;5.33;;;4.83;;
11173;SDS011;5643;50.856;12.088;2023-02-13T00:32:16;5.63;;;5.13;;
11173;SDS011;5643;50.856;12.088;2023-02-13T00:34:44;5.57;;;5.07;;
11173;SDS011;5643;50.856;12.088;2023-02-13T00:37:13;5.73;;;5.23;;
11173;SDS011;5643;50.856;12.088;2023-02-13T00:39:41;5.87;;;5.37;;
11173;SDS011;5643;50.856;12.088;2023-02-13T00:42:08;6.00;;;5.50;;
11173;SDS011;5643;50.856;12.088;2023-02-13T00:44:35;5.90;;;5.40;;
11173;SDS011;5643;50.856;12.088;2023-02-13T00:47:03;6.60;;;6.00;;
11173;SDS011;5643;50.856;12.088;2023-02-13T00:49:31;6.73;;;6.13;;
11173;SDS011;5643;50.856;12.088;2023-02-13T00:51:58;6.10;;;5.50;;
11173;SDS011;5643;50.856;12.088;2023-02-13T00:54:27;5.60;;;5.10;;
11173;SDS011;5643;50.856;12.088;2023-02-13T00:56:54;6.73;;;6.13;;
11173;SDS011;5643;50.856;12.088;2023-02-13T00:59:21;6.03;;;5.43;;
11173;SDS011;5643;50.856;12.088;2023-02-13T01:01:49;6.80;;;5.97;;
11173;SDS011;5643;50.856;12.088;2023-02-13T01:04:16;7.13;;;6.53;;
11173;SDS011;5643;50.856;12.088;2023-02-13T01:06:44;6.77;;;6.10;;
11173;SDS011;5643;50.856;12.088;2023-02-13T01:09:11;6.67;;;5.90;;
11173;SDS011;5643;50.856;12.088;2023-02-13T01:11:40;6.23;;;5.73;;
11173;SDS011;5643;50.856;12.088;2023-02-13T01:14:07;6.70;;;6.10;;
11173;SDS011;5643;50.856;12.088;2023-02-13T01:16:34;5.83;;;5.33;;
11173;SDS011;5643;50.856;12.088;2023-02-13T01:19:01;5.60;;;5.10;;
11173;SDS011;5643;50.856;12.088;2023-02-13T01:21:30;5.90;;;5.40;;
11173;SDS011;5643;50.856;12.088;2023-02-13T01:23:57;6.07;;;5.47;;
11173;SDS011;5643;50.856;12.088;2023-02-13T01:26:24;5.83;;;5.33;;
11173;SDS011;5643;50.856;12.088;2023-02-13T01:28:54;5.77;;;5.27;;
11173;SDS011;5643;50.856;12.088;2023-02-13T01:31:22;5.73;;;5.23;;
11173;SDS011;5643;50.856;12.088;2023-02-13T01:33:50;6.00;;;5.50;;
11173;SDS011;5643;50.856;12.088;2023-02-13T01:36:17;5.33;;;4.93;;
11173;SDS011;5643;50.856;12.088;2023-02-13T01:38:45;5.77;;;5.27;;
11173;SDS011;5643;50.856;12.088;2023-02-13T01:41:12;6.33;;;5.73;;
11173;SDS011;5643;50.856;12.088;2023-02-13T01:43:44;6.00;;;5.47;;
11173;SDS011;5643;50.856;12.088;2023-02-13T01:46:13;5.93;;;5.43;;
11173;SDS011;5643;50.856;12.088;2023-02-13T01:48:42;5.90;;;5.37;;
11173;SDS011;5643;50.856;12.088;2023-02-13T01:51:10;6.33;;;5.73;;
11173;SDS011;5643;50.856;12.088;2023-02-13T01:53:39;5.47;;;4.97;;
11173;SDS011;5643;50.856;12.088;2023-02-13T01:56:10;6.87;;;6.23;;
11173;SDS011;5643;50.856;12.088;2023-02-13T01:58:39;6.47;;;5.87;;
11173;SDS011;5643;50.856;12.088;2023-02-13T02:01:08;5.90;;;5.40;;
11173;SDS011;5643;50.856;12.088;2023-02-13T02:03:38;6.07;;;5.57;;
11173;SDS011;5643;50.856;12.088;2023-02-13T02:06:08;6.23;;;5.63;;
11173;SDS011;5643;50.856;12.088;2023-02-13T02:08:38;5.97;;;5.47;;
11173;SDS011;5643;50.856;12.088;2023-02-13T02:11:07;6.10;;;5.50;;
11173;SDS011;5643;50.856;12.088;2023-02-13T02:13:36;5.70;;;5.20;;
11173;SDS011;5643;50.856;12.088;2023-02-13T02:16:33;6.83;;;6.23;;
11173;SDS011;5643;50.856;12.088;2023-02-13T02:19:02;6.60;;;6.00;;
11173;SDS011;5643;50.856;12.088;2023-02-13T02:21:49;5.80;;;5.30;;
11173;SDS011;5643;50.856;12.088;2023-02-13T02:27:13;5.67;;;5.17;;
11173;SDS011;5643;50.856;12.088;2023-02-13T02:32:36;5.70;;;5.20;;
11173;SDS011;5643;50.856;12.088;2023-02-13T02:35:10;5.47;;;4.97;;
11173;SDS011;5643;50.856;12.088;2023-02-13T02:37:43;5.70;;;5.20;;
11173;SDS011;5643;50.856;12.088;2023-02-13T02:40:18;6.37;;;5.87;;
11173;SDS011;5643;50.856;12.088;2023-02-13T02:42:52;6.07;;;5.57;;
11173;SDS011;5643;50.856;12.088;2023-02-13T02:45:27;6.37;;;5.77;;
11173;SDS011;5643;50.856;12.088;2023-02-13T02:47:58;6.10;;;5.50;;
11173;SDS011;5643;50.856;12.088;2023-02-13T02:50:44;6.40;;;5.80;;
11173;SDS011;5643;50.856;12.088;2023-02-13T02:53:16;6.00;;;5.50;;
11173;SDS011;5643;50.856;12.088;2023-02-13T02:55:46;5.97;;;5.47;;
11173;SDS011;5643;50.856;12.088;2023-02-13T02:58:18;6.13;;;5.63;;
11173;SDS011;5643;50.856;12.088;2023-02-13T03:01:05;6.30;;;5.80;;
11173;SDS011;5643;50.856;12.088;2023-02-13T03:03:52;6.07;;;5.57;;
11173;SDS011;5643;50.856;12.088;2023-02-13T03:06:39;5.93;;;5.43;;
11173;SDS011;5643;50.856;12.088;2023-02-13T03:09:09;6.10;;;5.60;;
11173;SDS011;5643;50.856;12.088;2023-02-13T03:11:55;5.70;;;5.27;;
11173;SDS011;5643;50.856;12.088;2023-02-13T03:14:39;5.90;;;5.40;;
11173;SDS011;5643;50.856;12.088;2023-02-13T03:17:07;5.23;;;4.73;;
11173;SDS011;5643;50.856;12.088;2023-02-13T03:19:56;4.97;;;4.57;;
11173;SDS011;5643;50.856;12.088;2023-02-13T03:22:44;4.77;;;4.37;;
11173;SDS011;5643;50.856;12.088;2023-02-13T03:25:15;5.20;;;4.80;;
11173;SDS011;5643;50.856;12.088;2023-02-13T03:27:56;4.60;;;4.20;;
11173;SDS011;5643;50.856;12.088;2023-02-13T03:30:46;4.60;;;4.20;;
11173;SDS011;5643;50.856;12.088;2023-02-13T03:33:22;4.63;;;4.23;;
11173;SDS011;5643;50.856;12.088;2023-02-13T03:35:55;4.10;;;3.80;;
11173;SDS011;5643;50.856;12.088;2023-02-13T03:38:45;4.23;;;3.93;;
11173;SDS011;5643;50.856;12.088;2023-02-13T03:41:17;4.40;;;4.10;;
11173;SDS011;5643;50.856;12.088;2023-02-13T03:43:48;4.00;;;3.70;;
11173;SDS011;5643;50.856;12.088;2023-02-13T03:46:17;4.10;;;3.73;;
11173;SDS011;5643;50.856;12.088;2023-02-13T03:48:45;3.43;;;3.17;;
11173;SDS011;5643;50.856;12.088;2023-02-13T03:51:33;3.80;;;3.50;;
11173;SDS011;5643;50.856;12.088;2023-02-13T03:54:03;4.20;;;3.90;;
11173;SDS011;5643;50.856;12.088;2023-02-13T03:56:32;3.87;;;3.57;;
11173;SDS011;5643;50.856;12.088;2023-02-13T03:59:18;3.53;;;3.33;;
11173;SDS011;5643;50.856;12.088;2023-02-13T04:01:49;3.43;;;3.23;;
11173;SDS011;5643;50.856;12.088;2023-02-13T04:04:20;3.67;;;3.37;;
11173;SDS011;5643;50.856;12.088;2023-02-13T04:06:53;3.77;;;3.47;;
11173;SDS011;5643;50.856;12.088;2023-02-13T04:09:22;3.80;;;3.53;;
11173;SDS011;5643;50.856;12.088;2023-02-13T04:11:52;3.67;;;3.37;;
11173;SDS011;5643;50.856;12.088;2023-02-13T04:14:23;3.43;;;3.13;;
11173;SDS011;5643;50.856;12.088;2023-02-13T04:16:52;3.50;;;3.20;;
11173;SDS011;5643;50.856;12.088;2023-02-13T04:19:22;3.47;;;3.27;;
11173;SDS011;5643;50.856;12.088;2023-02-13T04:21:55;3.33;;;3.13;;
11173;SDS011;5643;50.856;12.088;2023-02-13T04:24:23;3.50;;;3.30;;
11173;SDS011;5643;50.856;12.088;2023-02-13T04:26:50;3.63;;;3.43;;
11173;SDS011;5643;50.856;12.088;2023-02-13T04:29:18;3.27;;;3.07;;
11173;SDS011;5643;50.856;12.088;2023-02-13T04:31:45;3.50;;;3.20;;
11173;SDS011;5643;50.856;12.088;2023-02-13T04:34:13;3.30;;;3.03;;
11173;SDS011;5643;50.856;12.088;2023-02-13T04:36:40;3.07;;;2.87;;
11173;SDS011;5643;50.856;12.088;2023-02-13T04:39:09;3.30;;;3.10;;
11173;SDS011;5643;50.856;12.088;2023-02-13T04:41:36;3.50;;;3.30;;
11173;SDS011;5643;50.856;12.088;2023-02-13T04:44:04;3.20;;;3.00;;
11173;SDS011;5643;50.856;12.088;2023-02-13T04:46:31;3.40;;;3.20;;
11173;SDS011;5643;50.856;12.088;2023-02-13T04:48:59;3.67;;;3.47;;
11173;SDS011;5643;50.856;12.088;2023-02-13T04:51:26;3.37;;;3.17;;
11173;SDS011;5643;50.856;12.088;2023-02-13T04:53:53;3.00;;;2.80;;
11173;SDS011;5643;50.856;12.088;2023-02-13T04:56:22;3.50;;;3.30;;
11173;SDS011;5643;50.856;12.088;2023-02-13T04:58:49;3.97;;;3.67;;
11173;SDS011;5643;50.856;12.088;2023-02-13T05:01:16;3.50;;;3.30;;
11173;SDS011;5643;50.856;12.088;2023-02-13T05:03:44;3.30;;;3.10;;
11173;SDS011;5643;50.856;12.088;2023-02-13T05:06:11;3.47;;;3.27;;
11173;SDS011;5643;50.856;12.088;2023-02-13T05:08:39;3.00;;;2.80;;
11173;SDS011;5643;50.856;12.088;2023-02-13T05:11:06;3.80;;;3.60;;
11173;SDS011;5643;50.856;12.088;2023-02-13T05:13:35;3.70;;;3.50;;
11173;SDS011;5643;50.856;12.088;2023-02-13T05:16:02;3.60;;;3.40;;
11173;SDS011;5643;50.856;12.088;2023-02-13T05:18:29;3.40;;;3.20;;
11173;SDS011;5643;50.856;12.088;2023-02-13T05:20:57;3.13;;;2.93;;
11173;SDS011;5643;50.856;12.088;2023-02-13T05:23:42;3.33;;;3.13;;
11173;SDS011;5643;50.856;12.088;2023-02-13T05:26:09;3.30;;;3.10;;
11173;SDS011;5643;50.856;12.088;2023-02-13T05:28:38;3.60;;;3.40;;
11173;SDS011;5643;50.856;12.088;2023-02-13T05:31:22;4.53;;;4.23;;
11173;SDS011;5643;50.856;12.088;2023-02-13T05:33:50;4.00;;;3.70;;
11173;SDS011;5643;50.856;12.088;2023-02-13T05:36:17;4.30;;;4.00;;
11173;SDS011;5643;50.856;12.088;2023-02-13T05:38:45;3.67;;;3.47;;
11173;SDS011;5643;50.856;12.088;2023-02-13T05:41:12;3.60;;;3.40;;
11173;SDS011;5643;50.856;12.088;2023-02-13T05:43:41;4.20;;;3.90;;
11173;SDS011;5643;50.856;12.088;2023-02-13T05:46:08;4.60;;;4.30;;
11173;SDS011;5643;50.856;12.088;2023-02-13T05:48:36;4.90;;;4.50;;
11173;SDS011;5643;50.856;12.088;2023-02-13T05:51:03;4.73;;;4.40;;
11173;SDS011;5643;50.856;12.088;2023-02-13T05:53:31;5.23;;;4.83;;
11173;SDS011;5643;50.856;12.088;2023-02-13T05:56:00;5.40;;;5.00;;
11173;SDS011;5643;50.856;12.088;2023-02-13T05:58:28;5.50;;;5.10;;
11173;SDS011;5643;50.856;12.088;2023-02-13T06:00:57;5.80;;;5.30;;
11173;SDS011;5643;50.856;12.088;2023-02-13T06:03:27;7.03;;;6.43;;
11173;SDS011;5643;50.856;12.088;2023-02-13T06:06:05;6.70;;;6.07;;
11173;SDS011;5643;50.856;12.088;2023-02-13T06:08:33;6.63;;;6.03;;
11173;SDS011;5643;50.856;12.088;2023-02-13T06:11:00;7.00;;;6.40;;
11173;SDS011;5643;50.856;12.088;2023-02-13T06:13:28;5.90;;;5.40;;
11173;SDS011;5643;50.856;12.088;2023-02-13T06:15:57;6.63;;;6.03;;
11173;SDS011;5643;50.856;12.088;2023-02-13T06:18:25;7.07;;;6.43;;
11173;SDS011;5643;50.856;12.088;2023-02-13T06:20:55;6.50;;;5.90;;
11173;SDS011;5643;50.856;12.088;2023-02-13T06:23:22;6.80;;;6.20;;
11173;SDS011;5643;50.856;12.088;2023-02-13T06:25:49;6.00;;;5.50;;
11173;SDS011;5643;50.856;12.088;2023-02-13T06:28:16;6.97;;;6.37;;
11173;SDS011;5643;50.856;12.088;2023-02-13T06:30:44;7.00;;;6.30;;
11173;SDS011;5643;50.856;12.088;2023-02-13T06:33:22;6.73;;;6.13;;
11173;SDS011;5643;50.856;12.088;2023-02-13T06:35:52;6.53;;;5.93;;
11173;SDS011;5643;50.856;12.088;2023-02-13T06:38:20;6.57;;;5.97;;
11173;SDS011;5643;50.856;12.088;2023-02-13T06:40:50;6.47;;;5.87;;
11173;SDS011;5643;50.856;12.088;2023-02-13T06:43:18;6.37;;;5.80;;
11173;SDS011;5643;50.856;12.088;2023-02-13T06:45:45;6.50;;;5.90;;
11173;SDS011;5643;50.856;12.088;2023-02-13T06:48:13;6.47;;;5.87;;
11173;SDS011;5643;50.856;12.088;2023-02-13T06:50:41;6.13;;;5.53;;
11173;SDS011;5643;50.856;12.088;2023-02-13T06:53:09;6.07;;;5.47;;
11173;SDS011;5643;50.856;12.088;2023-02-13T06:55:36;5.80;;;5.30;;
11173;SDS011;5643;50.856;12.088;2023-02-13T06:58:14;6.53;;;5.93;;
11173;SDS011;5643;50.856;12.088;2023-02-13T07:00:41;6.47;;;5.87;;
11173;SDS011;5643;50.856;12.088;2023-02-13T07:03:17;5.80;;;5.30;;
11173;SDS011;5643;50.856;12.088;2023-02-13T07:06:04;5.60;;;5.10;;
11173;SDS011;5643;50.856;12.088;2023-02-13T07:09:01;6.87;;;6.17;;
11173;SDS011;5643;50.856;12.088;2023-02-13T07:11:45;5.70;;;5.10;;
11173;SDS011;5643;50.856;12.088;2023-02-13T07:14:18;5.10;;;4.60;;
11173;SDS011;5643;50.856;12.088;2023-02-13T07:16:45;5.13;;;4.63;;
11173;SDS011;5643;50.856;12.088;2023-02-13T07:19:12;4.83;;;4.43;;
11173;SDS011;5643;50.856;12.088;2023-02-13T07:21:41;4.57;;;4.17;;
11173;SDS011;5643;50.856;12.088;2023-02-13T07:24:09;5.07;;;4.57;;
11173;SDS011;5643;50.856;12.088;2023-02-13T07:26:45;4.90;;;4.40;;
11173;SDS011;5643;50.856;12.088;2023-02-13T07:29:16;4.63;;;4.23;;
11173;SDS011;5643;50.856;12.088;2023-02-13T07:31:44;4.80;;;4.30;;
11173;SDS011;5643;50.856;12.088;2023-02-13T07:34:14;5.13;;;4.63;;
11173;SDS011;5643;50.856;12.088;2023-02-13T07:36:43;5.00;;;4.50;;
11173;SDS011;5643;50.856;12.088;2023-02-13T07:39:10;5.33;;;4.63;;
11173;SDS011;5643;50.856;12.088;2023-02-13T07:41:39;5.07;;;4.57;;
11173;SDS011;5643;50.856;12.088;2023-02-13T07:44:08;4.97;;;4.47;;
11173;SDS011;5643;50.856;12.088;2023-02-13T07:46:36;5.27;;;4.77;;
11173;SDS011;5643;50.856;12.088;2023-02-13T07:49:03;5.50;;;5.00;;
11173;SDS011;5643;50.856;12.088;2023-02-13T07:51:30;4.37;;;3.97;;
11173;SDS011;5643;50.856;12.088;2023-02-13T07:53:59;4.33;;;3.93;;
11173;SDS011;5643;50.856;12.088;2023-02-13T07:56:30;5.23;;;4.73;;
11173;SDS011;5643;50.856;12.088;2023-02-13T07:59:01;4.80;;;4.30;;
11173;SDS011;5643;50.856;12.088;2023-02-13T08:01:40;4.67;;;4.27;;
11173;SDS011;5643;50.856;12.088;2023-02-13T08:04:07;4.40;;;4.00;;
11173;SDS011;5643;50.856;12.088;2023-02-13T08:06:34;4.47;;;4.07;;
11173;SDS011;5643;50.856;12.088;2023-02-13T08:09:06;4.50;;;4.10;;
11173;SDS011;5643;50.856;12.088;2023-02-13T08:11:52;4.37;;;3.97;;
11173;SDS011;5643;50.856;12.088;2023-02-13T08:14:20;4.87;;;4.40;;
11173;SDS011;5643;50.856;12.088;2023-02-13T08:16:47;4.47;;;4.07;;
11173;SDS011;5643;50.856;12.088;2023-02-13T08:19:14;4.83;;;4.27;;
11173;SDS011;5643;50.856;12.088;2023-02-13T08:21:42;4.97;;;4.07;;
11173;SDS011;5643;50.856;12.088;2023-02-13T08:24:11;5.43;;;4.90;;
11173;SDS011;5643;50.856;12.088;2023-02-13T08:26:39;4.50;;;3.93;;
11173;SDS011;5643;50.856;12.088;2023-02-13T08:29:07;5.07;;;4.57;;
11173;SDS011;5643;50.856;12.088;2023-02-13T08:31:34;4.57;;;3.70;;
11173;SDS011;5643;50.856;12.088;2023-02-13T08:34:02;4.83;;;4.43;;
11173;SDS011;5643;50.856;12.088;2023-02-13T08:36:29;4.67;;;4.27;;
11173;SDS011;5643;50.856;12.088;2023-02-13T08:38:58;5.00;;;4.50;;
11173;SDS011;5643;50.856;12.088;2023-02-13T08:41:27;4.83;;;4.33;;
11173;SDS011;5643;50.856;12.088;2023-02-13T08:43:54;6.03;;;4.63;;
11173;SDS011;5643;50.856;12.088;2023-02-13T08:46:22;4.90;;;4.40;;
11173;SDS011;5643;50.856;12.088;2023-02-13T08:48:49;4.40;;;4.00;;
11173;SDS011;5643;50.856;12.088;2023-02-13T08:51:17;4.50;;;4.10;;
11173;SDS011;5643;50.856;12.088;2023-02-13T08:53:44;5.20;;;4.70;;
11173;SDS011;5643;50.856;12.088;2023-02-13T08:56:12;4.77;;;4.27;;
11173;SDS011;5643;50.856;12.088;2023-02-13T08:58:41;5.20;;;4.53;;
11173;SDS011;5643;50.856;12.088;2023-02-13T09:01:09;4.43;;;4.03;;
11173;SDS011;5643;50.856;12.088;2023-02-13T09:03:36;4.80;;;4.37;;
11173;SDS011;5643;50.856;12.088;2023-02-13T09:06:03;5.40;;;4.90;;
11173;SDS011;5643;50.856;12.088;2023-02-13T09:08:33;4.50;;;4.10;;
11173;SDS011;5643;50.856;12.088;2023-02-13T09:11:03;5.60;;;5.00;;
11173;SDS011;5643;50.856;12.088;2023-02-13T09:13:38;5.60;;;5.00;;
11173;SDS011;5643;50.856;12.088;2023-02-13T09:16:38;6.00;;;5.10;;
11173;SDS011;5643;50.856;12.088;2023-02-13T09:19:05;5.10;;;4.60;;
11173;SDS011;5643;50.856;12.088;2023-02-13T09:21:37;5.30;;;4.80;;
11173;SDS011;5643;50.856;12.088;2023-02-13T09:24:32;5.03;;;4.53;;
11173;SDS011;5643;50.856;12.088;2023-02-13T09:27:05;5.57;;;5.03;;
11173;SDS011;5643;50.856;12.088;2023-02-13T09:29:35;5.27;;;4.63;;
11173;SDS011;5643;50.856;12.088;2023-02-13T09:32:11;5.30;;;4.80;;
11173;SDS011;5643;50.856;12.088;2023-02-13T09:34:39;5.13;;;4.43;;
11173;SDS011;5643;50.856;12.088;2023-02-13T09:37:07;5.00;;;4.50;;
11173;SDS011;5643;50.856;12.088;2023-02-13T09:39:34;5.23;;;4.70;;
11173;SDS011;5643;50.856;12.088;2023-02-13T09:42:02;4.87;;;4.43;;
11173;SDS011;5643;50.856;12.088;2023-02-13T09:44:33;4.87;;;4.37;;
11173;SDS011;5643;50.856;12.088;2023-02-13T09:47:04;4.57;;;4.10;;
11173;SDS011;5643;50.856;12.088;2023-02-13T09:49:35;4.60;;;4.20;;
11173;SDS011;5643;50.856;12.088;2023-02-13T09:52:04;5.53;;;4.37;;
11173;SDS011;5643;50.856;12.088;2023-02-13T09:54:43;4.80;;;4.40;;
11173;SDS011;5643;50.856;12.088;2023-02-13T09:57:13;4.77;;;4.37;;
11173;SDS011;5643;50.856;12.088;2023-02-13T09:59:52;4.97;;;4.53;;
11173;SDS011;5643;50.856;12.088;2023-02-13T10:02:25;4.93;;;4.53;;
11173;SDS011;5643;50.856;12.088;2023-02-13T10:04:59;4.67;;;4.27;;
11173;SDS011;5643;50.856;12.088;2023-02-13T10:07:30;5.20;;;4.70;;
11173;SDS011;5643;50.856;12.088;2023-02-13T10:10:00;5.20;;;4.70;;
11173;SDS011;5643;50.856;12.088;2023-02-13T10:12:31;5.30;;;4.80;;
11173;SDS011;5643;50.856;12.088;2023-02-13T10:15:05;6.27;;;5.67;;
11173;SDS011;5643;50.856;12.088;2023-02-13T10:17:37;6.17;;;5.60;;
11173;SDS011;5643;50.856;12.088;2023-02-13T10:20:09;6.63;;;6.00;;
11173;SDS011;5643;50.856;12.088;2023-02-13T10:22:43;6.50;;;5.57;;
11173;SDS011;5643;50.856;12.088;2023-02-13T10:25:13;5.60;;;5.00;;
11173;SDS011;5643;50.856;12.088;2023-02-13T10:27:42;5.97;;;5.40;;
11173;SDS011;5643;50.856;12.088;2023-02-13T10:30:15;5.33;;;4.83;;
11173;SDS011;5643;50.856;12.088;2023-02-13T10:32:46;5.73;;;5.23;;
11173;SDS011;5643;50.856;12.088;2023-02-13T10:35:23;4.93;;;4.43;;
11173;SDS011;5643;50.856;12.088;2023-02-13T10:37:53;6.10;;;5.50;;
11173;SDS011;5643;50.856;12.088;2023-02-13T10:40:21;5.27;;;4.77;;
11173;SDS011;5643;50.856;12.088;2023-02-13T10:42:52;5.43;;;4.93;;
11173;SDS011;5643;50.856;12.088;2023-02-13T10:45:50;6.10;;;5.50;;
11173;SDS011;5643;50.856;12.088;2023-02-13T10:48:25;6.47;;;5.87;;
11173;SDS011;5643;50.856;12.088;2023-02-13T10:50:57;6.97;;;6.10;;
11173;SDS011;5643;50.856;12.088;2023-02-13T10:53:34;35.73;;;22.10;;
11173;SDS011;5643;50.856;12.088;2023-02-13T10:56:15;27.73;;;18.17;;
11173;SDS011;5643;50.856;12.088;2023-02-13T10:59:02;20.73;;;14.10;;
11173;SDS011;5643;50.856;12.088;2023-02-13T11:01:32;16.93;;;12.27;;
11173;SDS011;5643;50.856;12.088;2023-02-13T11:04:05;16.73;;;11.73;;
11173;SDS011;5643;50.856;12.088;2023-02-13T11:06:36;12.63;;;9.60;;
11173;SDS011;5643;50.856;12.088;2023-02-13T11:09:03;12.57;;;9.70;;
11173;SDS011;5643;50.856;12.088;2023-02-13T11:11:32;13.70;;;10.50;;
11173;SDS011;5643;50.856;12.088;2023-02-13T11:14:07;14.77;;;10.70;;
11173;SDS011;5643;50.856;12.088;2023-02-13T11:16:37;14.57;;;11.03;;
11173;SDS011;5643;50.856;12.088;2023-02-13T11:21:47;10.57;;;8.40;;
11173;SDS011;5643;50.856;12.088;2023-02-13T11:24:18;9.43;;;8.33;;
11173;SDS011;5643;50.856;12.088;2023-02-13T11:26:49;7.60;;;6.80;;
11173;SDS011;5643;50.856;12.088;2023-02-13T11:29:23;7.63;;;6.27;;
11173;SDS011;5643;50.856;12.088;2023-02-13T11:32:18;5.60;;;5.13;;
11173;SDS011;5643;50.856;12.088;2023-02-13T11:34:46;4.40;;;4.00;;
11173;SDS011;5643;50.856;12.088;2023-02-13T11:37:18;4.37;;;4.07;;
11173;SDS011;5643;50.856;12.088;2023-02-13T11:39:46;4.20;;;3.90;;
11173;SDS011;5643;50.856;12.088;2023-02-13T11:42:14;4.87;;;4.47;;
11173;SDS011;5643;50.856;12.088;2023-02-13T11:44:43;4.87;;;4.47;;
11173;SDS011;5643;50.856;12.088;2023-02-13T11:47:15;4.90;;;4.50;;
11173;SDS011;5643;50.856;12.088;2023-02-13T11:49:44;5.10;;;4.70;;
11173;SDS011;5643;50.856;12.088;2023-02-13T11:52:19;5.07;;;4.67;;
11173;SDS011;5643;50.856;12.088;2023-02-13T11:54:55;3.90;;;3.60;;
11173;SDS011;5643;50.856;12.088;2023-02-13T11:57:23;4.80;;;4.40;;
11173;SDS011;5643;50.856;12.088;2023-02-13T11:59:52;4.90;;;4.50;;
11173;SDS011;5643;50.856;12.088;2023-02-13T12:02:20;5.13;;;4.73;;
11173;SDS011;5643;50.856;12.088;2023-02-13T12:04:48;5.60;;;5.10;;
11173;SDS011;5643;50.856;12.088;2023-02-13T12:07:18;5.33;;;4.93;;
11173;SDS011;5643;50.856;12.088;2023-02-13T12:09:48;5.00;;;4.60;;
11173;SDS011;5643;50.856;12.088;2023-02-13T12:12:18;5.10;;;4.70;;
11173;SDS011;5643;50.856;12.088;2023-02-13T12:14:49;4.93;;;4.53;;
11173;SDS011;5643;50.856;12.088;2023-02-13T12:17:16;4.33;;;4.03;;
11173;SDS011;5643;50.856;12.088;2023-02-13T12:19:45;5.30;;;4.90;;
11173;SDS011;5643;50.856;12.088;2023-02-13T12:22:23;4.80;;;4.40;;
11173;SDS011;5643;50.856;12.088;2023-02-13T12:24:57;4.80;;;4.40;;
11173;SDS011;5643;50.856;12.088;2023-02-13T12:27:33;5.27;;;4.87;;
11173;SDS011;5643;50.856;12.088;2023-02-13T12:30:15;4.70;;;4.30;;
11173;SDS011;5643;50.856;12.088;2023-02-13T12:32:47;4.47;;;4.10;;
11173;SDS011;5643;50.856;12.088;2023-02-13T12:38:06;3.70;;;3.50;;
11173;SDS011;5643;50.856;12.088;2023-02-13T12:43:45;9.37;;;7.97;;
11173;SDS011;5643;50.856;12.088;2023-02-13T12:46:16;8.03;;;7.23;;
11173;SDS011;5643;50.856;12.088;2023-02-13T12:48:45;5.63;;;5.13;;
11173;SDS011;5643;50.856;12.088;2023-02-13T12:51:21;5.20;;;4.80;;
11173;SDS011;5643;50.856;12.088;2023-02-13T12:54:01;4.20;;;3.87;;
11173;SDS011;5643;50.856;12.088;2023-02-13T12:56:39;13.67;;;8.60;;
11173;SDS011;5643;50.856;12.088;2023-02-13T12:59:10;25.03;;;13.87;;
11173;SDS011;5643;50.856;12.088;2023-02-13T13:01:45;14.67;;;9.47;;
11173;SDS011;5643;50.856;12.088;2023-02-13T13:04:16;8.27;;;6.43;;
11173;SDS011;5643;50.856;12.088;2023-02-13T13:06:49;46.13;;;22.87;;
11173;SDS011;5643;50.856;12.088;2023-02-13T13:09:33;37.80;;;19.13;;
11173;SDS011;5643;50.856;12.088;2023-02-13T13:12:12;26.17;;;14.13;;
11173;SDS011;5643;50.856;12.088;2023-02-13T13:14:47;16.77;;;10.23;;
11173;SDS011;5643;50.856;12.088;2023-02-13T13:17:21;9.73;;;7.13;;
11173;SDS011;5643;50.856;12.088;2023-02-13T13:19:54;6.57;;;5.97;;
11173;SDS011;5643;50.856;12.088;2023-02-13T13:22:24;6.40;;;5.90;;
11173;SDS011;5643;50.856;12.088;2023-02-13T13:24:54;5.93;;;5.43;;
11173;SDS011;5643;50.856;12.088;2023-02-13T13:27:26;6.73;;;6.13;;
11173;SDS011;5643;50.856;12.088;2023-02-13T13:29:56;6.50;;;6.00;;
11173;SDS011;5643;50.856;12.088;2023-02-13T13:32:24;6.57;;;5.97;;
11173;SDS011;5643;50.856;12.088;2023-02-13T13:34:52;6.00;;;5.50;;
11173;SDS011;5643;50.856;12.088;2023-02-13T13:37:21;6.00;;;5.50;;
11173;SDS011;5643;50.856;12.088;2023-02-13T13:39:53;5.80;;;5.30;;
11173;SDS011;5643;50.856;12.088;2023-02-13T13:42:26;5.90;;;5.40;;
11173;SDS011;5643;50.856;12.088;2023-02-13T13:45:07;5.20;;;4.80;;
11173;SDS011;5643;50.856;12.088;2023-02-13T13:47:46;5.50;;;5.10;;
11173;SDS011;5643;50.856;12.088;2023-02-13T13:50:22;5.17;;;4.77;;
11173;SDS011;5643;50.856;12.088;2023-02-13T13:53:04;5.13;;;4.63;;
11173;SDS011;5643;50.856;12.088;2023-02-13T13:58:30;5.77;;;5.27;;
11173;SDS011;5643;50.856;12.088;2023-02-13T14:03:49;5.00;;;4.60;;
11173;SDS011;5643;50.856;12.088;2023-02-13T14:06:18;4.53;;;4.17;;
11173;SDS011;5643;50.856;12.088;2023-02-13T14:11:43;4.80;;;4.40;;
11173;SDS011;5643;50.856;12.088;2023-02-13T14:16:58;4.23;;;3.93;;
11173;SDS011;5643;50.856;12.088;2023-02-13T14:19:33;4.33;;;4.00;;
11173;SDS011;5643;50.856;12.088;2023-02-13T14:24:50;4.57;;;4.17;;
11173;SDS011;5643;50.856;12.088;2023-02-13T14:27:19;4.30;;;4.00;;
11173;SDS011;5643;50.856;12.088;2023-02-13T14:29:49;4.40;;;4.10;;
11173;SDS011;5643;50.856;12.088;2023-02-13T14:32:21;4.53;;;4.17;;
11173;SDS011;5643;50.856;12.088;2023-02-13T14:34:56;4.90;;;4.50;;
11173;SDS011;5643;50.856;12.088;2023-02-13T14:37:30;4.10;;;3.80;;
11173;SDS011;5643;50.856;12.088;2023-02-13T14:40:26;5.63;;;5.13;;
11173;SDS011;5643;50.856;12.088;2023-02-13T14:42:57;4.73;;;4.33;;
11173;SDS011;5643;50.856;12.088;2023-02-13T14:45:28;4.47;;;4.17;;
11173;SDS011;5643;50.856;12.088;2023-02-13T14:48:07;3.93;;;3.63;;
11173;SDS011;5643;50.856;12.088;2023-02-13T14:50:44;4.67;;;4.20;;
11173;SDS011;5643;50.856;12.088;2023-02-13T14:53:18;4.50;;;4.20;;
11173;SDS011;5643;50.856;12.088;2023-02-13T14:55:48;4.50;;;4.10;;
11173;SDS011;5643;50.856;12.088;2023-02-13T14:58:22;5.17;;;4.77;;
11173;SDS011;5643;50.856;12.088;2023-02-13T15:00:52;4.60;;;4.20;;
11173;SDS011;5643;50.856;12.088;2023-02-13T15:03:26;3.83;;;3.53;;
11173;SDS011;5643;50.856;12.088;2023-02-13T15:05:58;3.80;;;3.50;;
11173;SDS011;5643;50.856;12.088;2023-02-13T15:08:29;7.03;;;4.90;;
11173;SDS011;5643;50.856;12.088;2023-02-13T15:11:03;5.30;;;4.70;;
11173;SDS011;5643;50.856;12.088;2023-02-13T15:14:24;4.73;;;4.10;;
11173;SDS011;5643;50.856;12.088;2023-02-13T15:17:01;4.23;;;3.93;;
11173;SDS011;5643;50.856;12.088;2023-02-13T15:19:38;4.53;;;4.13;;
11173;SDS011;5643;50.856;12.088;2023-02-13T15:22:25;5.37;;;4.50;;
11173;SDS011;5643;50.856;12.088;2023-02-13T15:24:56;4.70;;;4.30;;
11173;SDS011;5643;50.856;12.088;2023-02-13T15:27:26;4.83;;;4.33;;
11173;SDS011;5643;50.856;12.088;2023-02-13T15:29:56;4.80;;;4.27;;
11173;SDS011;5643;50.856;12.088;2023-02-13T15:32:27;4.93;;;4.03;;
11173;SDS011;5643;50.856;12.088;2023-02-13T15:34:56;4.57;;;4.17;;
11173;SDS011;5643;50.856;12.088;2023-02-13T15:37:41;5.00;;;4.60;;
11173;SDS011;5643;50.856;12.088;2023-02-13T15:40:22;4.80;;;4.40;;